Time;durP1;ratioP1;P1;durP2;ratioP2;P2;SDS_P1;SDS_P2;PMS_P1;PMS_P2;Temp;Humidity;BMP_temperature;BMP_pressure;BME280_temperature;BME280_humidity;BME280_pressure;Samples;Min_cycle;Max_cycle;Signal;HPM_P1;HPM_P2
2023/08/26 00:01:18;;;;;;;8.77;2.17;;;;;;;-146.27;74.00;81616.91;5028210;28;20045;-67
2023/08/26 00:03:43;;;;;;;8.32;1.90;;;;;;;-146.27;73.26;81600.84;5028087;28;20025;-67
2023/08/26 00:06:09;;;;;;;5.35;2.22;;;;;;;-146.27;73.93;81651.03;5029708;28;20072;-67
2023/08/26 00:08:34;;;;;;;6.07;1.85;;;;;;;-146.27;74.25;81632.97;5028521;28;20049;-67
2023/08/26 00:10:59;;;;;;;2.95;1.63;;;;;;;-146.27;73.97;81622.91;5027670;28;20025;-67
2023/08/26 00:13:25;;;;;;;5.22;2.10;;;;;;;-146.27;73.42;81612.88;5027663;28;20124;-67
2023/08/26 00:15:50;;;;;;;5.82;1.90;;;;;;;-146.27;74.42;81632.97;5030064;28;20057;-67
2023/08/26 00:18:15;;;;;;;5.30;1.80;;;;;;;-146.27;72.93;81653.06;5028062;28;20029;-68
2023/08/26 00:20:41;;;;;;;5.05;1.60;;;;;;;-146.27;73.26;81659.06;5029538;28;20021;-67
2023/08/26 00:23:06;;;;;;;6.60;2.10;;;;;;;-146.27;75.15;81677.16;5027679;28;20026;-66
2023/08/26 00:25:31;;;;;;;7.75;2.30;;;;;;;-146.27;78.02;81705.28;5026488;28;20563;-68
2023/08/26 00:27:57;;;;;;;8.15;2.20;;;;;;;-146.27;81.72;81771.53;5022384;28;20547;-66
2023/08/26 00:30:22;;;;;;;7.28;2.80;;;;;;;-146.27;84.26;81797.66;5029638;28;20087;-66
2023/08/26 00:32:48;;;;;;;14.15;3.65;;;;;;;-146.27;84.86;81906.13;5027169;28;20362;-66
2023/08/26 00:35:13;;;;;;;8.25;3.00;;;;;;;-146.27;86.86;81942.28;5028065;28;20028;-66
2023/08/26 00:37:38;;;;;;;7.75;3.17;;;;;;;-146.27;87.51;82016.59;5026737;28;20029;-66
2023/08/26 00:40:04;;;;;;;13.50;3.40;;;;;;;-146.27;88.52;82026.63;5026971;28;20029;-67
2023/08/26 00:42:35;;;;;;;7.85;3.67;;;;;;;-146.27;88.83;82022.63;5028218;28;20040;-68
2023/08/26 00:45:01;;;;;;;10.73;3.20;;;;;;;-146.27;88.91;82014.59;5025237;28;20032;-67
2023/08/26 00:47:26;;;;;;;7.88;3.28;;;;;;;-146.27;88.84;82048.72;5027317;28;20033;-67
2023/08/26 00:49:52;;;;;;;10.80;3.17;;;;;;;-146.27;88.82;82022.63;5027741;28;20021;-67
2023/08/26 00:52:17;;;;;;;8.98;3.25;;;;;;;-146.27;89.00;82020.59;5027331;28;20033;-67
2023/08/26 00:54:44;;;;;;;6.38;3.40;;;;;;;-146.27;88.77;82038.69;5025959;28;20029;-67
2023/08/26 00:57:09;;;;;;;9.95;3.70;;;;;;;-146.27;88.05;82040.69;5026733;28;20021;-67
2023/08/26 00:59:35;;;;;;;10.30;2.72;;;;;;;-146.27;88.04;82070.81;5026331;28;20041;-67
2023/08/26 01:02:01;;;;;;;11.13;2.63;;;;;;;-146.27;88.29;82026.63;5024101;28;20026;-67
2023/08/26 01:04:27;;;;;;;8.63;2.60;;;;;;;-146.27;87.99;82078.84;5026468;28;20112;-67
2023/08/26 01:06:52;;;;;;;12.27;2.92;;;;;;;-146.27;87.84;82088.91;5025881;28;20035;-67
2023/08/26 01:09:18;;;;;;;7.13;2.63;;;;;;;-146.27;87.75;82070.81;5027187;28;20490;-67
2023/08/26 01:12:03;;;;;;;12.07;2.80;;;;;;;-146.27;87.77;82010.56;5028269;28;20025;-67
2023/08/26 01:14:31;;;;;;;8.25;2.92;;;;;;;-146.27;89.10;82078.84;5029046;28;20053;-67
2023/08/26 01:16:58;;;;;;;11.07;2.38;;;;;;;-146.27;88.50;82098.94;5029185;28;20496;-67
2023/08/26 01:19:51;;;;;;;6.20;2.55;;;;;;;-146.27;87.18;82028.66;5028009;28;20030;-67
2023/08/26 01:22:22;;;;;;;12.00;2.75;;;;;;;-146.27;87.51;82074.84;5021911;28;20041;-67
2023/08/26 01:24:48;;;;;;;9.57;2.75;;;;;;;-146.27;87.54;82088.91;5026283;28;20539;-67
2023/08/26 01:27:13;;;;;;;8.70;2.92;;;;;;;-146.27;86.89;82100.97;5026568;28;20033;-67
2023/08/26 01:29:38;;;;;;;7.68;2.75;;;;;;;-146.27;87.36;82119.03;5026669;28;20545;-67
2023/08/26 01:32:23;;;;;;;13.70;3.28;;;;;;;-146.27;87.94;82092.91;5027710;28;20891;-67
2023/08/26 01:34:56;;;;;;;9.50;2.78;;;;;;;-146.27;87.56;82080.88;5028439;28;20025;-67
2023/08/26 01:37:23;;;;;;;12.10;3.23;;;;;;;-146.27;87.77;82086.91;5027477;28;20033;-66
2023/08/26 01:39:51;;;;;;;7.60;2.13;;;;;;;-146.27;87.47;82090.91;5026285;28;20029;-68
2023/08/26 01:42:19;;;;;;;12.52;3.00;;;;;;;-146.27;87.50;82088.91;5025755;28;20033;-68
2023/08/26 01:44:46;;;;;;;9.95;2.83;;;;;;;-146.27;87.33;82163.22;5027423;28;20052;-68
2023/08/26 01:47:11;;;;;;;8.23;2.80;;;;;;;-146.27;88.17;82119.03;5027571;28;20425;-68
2023/08/26 01:49:37;;;;;;;9.32;2.50;;;;;;;-146.27;87.08;82163.22;5021390;28;20108;-67
2023/08/26 01:52:02;;;;;;;6.50;2.35;;;;;;;-146.27;88.33;82135.09;5019970;28;20033;-67
2023/08/26 01:54:28;;;;;;;5.60;2.10;;;;;;;-146.27;87.66;82119.03;5022088;28;20116;-67
2023/08/26 01:56:53;;;;;;;9.65;2.60;;;;;;;-146.27;88.90;82088.91;5022680;28;20096;-68
2023/08/26 01:59:18;;;;;;;10.10;2.35;;;;;;;-146.27;87.71;82155.19;5025262;28;20477;-67
2023/08/26 02:01:44;;;;;;;12.57;2.85;;;;;;;-146.27;88.75;82094.94;5027730;28;20468;-69
2023/08/26 02:04:09;;;;;;;8.45;2.80;;;;;;;-146.27;88.87;82098.94;5026571;28;20087;-67
2023/08/26 02:06:35;;;;;;;12.90;3.38;;;;;;;-146.27;88.54;82125.06;5028220;28;20029;-68
2023/08/26 02:09:00;;;;;;;11.82;3.05;;;;;;;-146.27;89.78;82123.06;5026363;28;20486;-67
2023/08/26 02:11:25;;;;;;;10.13;3.10;;;;;;;-146.27;90.59;82141.13;5027989;28;20056;-67
2023/08/26 02:13:51;;;;;;;9.65;3.53;;;;;;;-146.27;90.62;82159.22;5027646;28;20473;-67
2023/08/26 02:16:16;;;;;;;10.00;3.40;;;;;;;-146.27;90.99;82161.22;5027244;28;20160;-67
2023/08/26 02:18:41;;;;;;;11.93;3.97;;;;;;;-146.27;92.42;82129.06;5027804;28;20489;-67
2023/08/26 02:21:08;;;;;;;16.67;5.25;;;;;;;-146.27;93.73;82175.28;5027630;28;20026;-67
2023/08/26 02:23:34;;;;;;;11.25;4.72;;;;;;;-146.27;95.50;82106.97;5028991;28;20040;-67
2023/08/26 02:25:59;;;;;;;15.90;5.70;;;;;;;-146.27;95.68;82139.13;5026954;28;20025;-67
2023/08/26 02:28:25;;;;;;;13.07;5.15;;;;;;;-146.27;97.31;82197.38;5026941;28;20014;-67
2023/08/26 02:30:50;;;;;;;14.25;5.10;;;;;;;-146.27;98.74;82175.28;5028371;28;20025;-67
2023/08/26 02:33:15;;;;;;;13.20;5.57;;;;;;;-146.27;98.70;82159.22;5025943;28;20099;-67
2023/08/26 02:35:47;;;;;;;12.05;5.60;;;;;;;-146.27;98.97;82191.34;5027443;28;20029;-67
2023/08/26 02:38:13;;;;;;;20.73;9.30;;;;;;;-146.27;100.00;82179.28;5025437;28;20059;-67
2023/08/26 02:40:39;;;;;;;15.95;6.28;;;;;;;-146.27;100.00;82167.25;5027042;28;20021;-68
2023/08/26 02:43:04;;;;;;;15.05;6.00;;;;;;;-146.27;100.00;82215.44;5026207;28;20592;-67
2023/08/26 02:45:30;;;;;;;13.32;5.90;;;;;;;-146.27;100.00;82191.34;5027255;28;20114;-67
2023/08/26 02:47:57;;;;;;;14.05;6.40;;;;;;;-146.27;100.00;82197.38;5023288;28;20030;-67
2023/08/26 02:50:24;;;;;;;13.30;9.25;;;;;;;-146.27;100.00;82195.38;5025990;28;21698;-67
2023/08/26 02:52:50;;;;;;;20.10;9.98;;;;;;;-146.27;100.00;82195.38;5027565;28;20057;-67
2023/08/26 02:55:15;;;;;;;19.10;8.35;;;;;;;-146.27;98.57;82289.78;5029187;28;20091;-68
2023/08/26 02:57:42;;;;;;;15.90;8.63;;;;;;;-146.27;99.07;82283.75;5031186;28;20057;-67
2023/08/26 03:00:09;;;;;;;19.50;8.02;;;;;;;-146.27;98.66;82267.69;5030677;28;20029;-67
2023/08/26 03:02:35;;;;;;;14.65;7.25;;;;;;;-146.27;98.10;82323.91;5031517;28;20022;-67
2023/08/26 03:05:01;;;;;;;17.33;6.90;;;;;;;-146.27;98.65;82295.81;5021724;28;20033;-67
2023/08/26 03:07:26;;;;;;;13.60;7.05;;;;;;;-146.27;98.28;82311.88;5032843;28;20029;-67
2023/08/26 03:09:52;;;;;;;21.42;6.75;;;;;;;-146.27;98.74;82360.09;5027641;28;20081;-67
2023/08/26 03:12:17;;;;;;;18.02;6.32;;;;;;;-146.27;98.80;82340.00;5029559;28;20057;-67
2023/08/26 03:14:43;;;;;;;14.60;7.35;;;;;;;-146.27;99.97;82340.00;5032334;28;20029;-67
2023/08/26 03:17:08;;;;;;;16.17;7.50;;;;;;;-146.27;100.00;82307.84;5030325;28;20032;-67
2023/08/26 03:19:33;;;;;;;17.80;6.72;;;;;;;-146.27;99.12;82358.06;5031386;28;20028;-67
2023/08/26 03:21:59;;;;;;;17.77;6.95;;;;;;;-146.27;98.95;82372.13;5029431;28;20033;-67
2023/08/26 03:24:26;;;;;;;22.30;7.10;;;;;;;-146.27;100.00;82333.97;5031999;28;20488;-68
2023/08/26 03:26:51;;;;;;;18.90;7.35;;;;;;;-146.27;100.00;82344.00;5031984;28;20583;-67
2023/08/26 03:29:16;;;;;;;12.90;6.70;;;;;;;-146.27;100.00;82307.84;5028802;28;20024;-67
2023/08/26 03:31:43;;;;;;;14.40;6.35;;;;;;;-146.27;100.00;82281.75;5030178;28;20444;-66
2023/08/26 03:34:08;;;;;;;18.67;5.93;;;;;;;-146.27;99.73;82299.81;5031361;28;20025;-66
2023/08/26 03:36:34;;;;;;;12.70;5.75;;;;;;;-146.27;99.72;82317.91;5031154;28;20033;-66
2023/08/26 03:38:59;;;;;;;9.93;5.38;;;;;;;-146.27;98.74;82311.88;5029954;28;20029;-66
2023/08/26 03:41:24;;;;;;;14.82;5.72;;;;;;;-146.27;97.79;82374.13;5029457;28;20036;-66
2023/08/26 03:43:50;;;;;;;11.95;5.63;;;;;;;-146.27;98.36;82378.16;5030024;28;20061;-66
2023/08/26 03:46:15;;;;;;;13.98;4.93;;;;;;;-146.27;98.01;82396.25;5030960;28;20029;-67
2023/08/26 03:48:41;;;;;;;17.08;4.85;;;;;;;-146.27;97.65;82396.25;5025791;28;20037;-67
2023/08/26 03:51:07;;;;;;;6.57;4.70;;;;;;;-146.27;98.08;82404.28;5023110;28;20064;-67
2023/08/26 03:53:32;;;;;;;22.35;6.35;;;;;;;-146.27;98.05;82422.34;5023591;28;20026;-66
2023/08/26 03:55:58;;;;;;;12.40;5.28;;;;;;;-146.27;98.03;82442.44;5025370;28;20044;-67
2023/08/26 03:58:23;;;;;;;15.50;5.30;;;;;;;-146.27;97.47;82464.53;5028707;28;20105;-66
2023/08/26 04:00:50;;;;;;;12.57;5.10;;;;;;;-146.27;97.60;82412.31;5027690;28;20504;-67
2023/08/26 04:03:16;;;;;;;15.23;5.15;;;;;;;-146.27;97.17;82500.69;5020435;28;20504;-66
2023/08/26 04:05:42;;;;;;;9.80;5.45;;;;;;;-146.27;97.09;82476.59;5030119;28;20111;-66
2023/08/26 04:08:07;;;;;;;11.00;5.53;;;;;;;-146.27;96.95;82486.63;5028123;28;20045;-66
2023/08/26 04:10:32;;;;;;;17.27;6.22;;;;;;;-146.27;96.81;82528.81;5029731;28;20402;-66
2023/08/26 04:13:16;;;;;;;11.23;5.15;;;;;;;-146.27;96.83;82472.56;5027394;28;20181;-67
2023/08/26 04:15:42;;;;;;;14.88;5.10;;;;;;;-146.27;96.51;82488.66;5026425;28;20025;-66
2023/08/26 04:18:07;;;;;;;21.65;5.78;;;;;;;-146.27;96.84;82504.72;5030277;28;20029;-66
2023/08/26 04:20:32;;;;;;;11.65;4.75;;;;;;;-146.27;96.63;82448.47;5027293;28;20056;-67
2023/08/26 04:22:58;;;;;;;16.90;5.68;;;;;;;-146.27;96.34;82480.59;5027467;28;20025;-66
2023/08/26 04:25:26;;;;;;;12.63;5.20;;;;;;;-146.27;96.33;82512.75;5029602;28;20146;-66
2023/08/26 04:27:51;;;;;;;17.33;5.57;;;;;;;-146.27;96.15;82552.94;5025947;28;20045;-66
2023/08/26 04:30:16;;;;;;;14.65;5.50;;;;;;;-146.27;96.46;82512.75;5029236;28;20032;-66
2023/08/26 04:32:42;;;;;;;18.35;5.88;;;;;;;-146.27;96.57;82514.75;5027537;28;20021;-67
2023/08/26 04:35:07;;;;;;;13.10;5.05;;;;;;;-146.27;96.31;82560.97;5029501;28;20095;-67
2023/08/26 04:37:32;;;;;;;14.25;5.13;;;;;;;-146.27;96.12;82536.84;5028429;28;20031;-67
2023/08/26 04:39:58;;;;;;;18.13;5.45;;;;;;;-146.27;96.28;82520.78;5027364;28;20583;-67
2023/08/26 04:42:23;;;;;;;12.65;5.20;;;;;;;-146.27;96.30;82524.81;5025584;28;20501;-71
2023/08/26 04:44:49;;;;;;;11.60;4.53;;;;;;;-146.27;96.26;82558.97;5027325;28;20049;-67
2023/08/26 04:47:14;;;;;;;15.10;5.47;;;;;;;-146.27;96.47;82496.69;5023426;28;20113;-67
2023/08/26 04:49:39;;;;;;;11.60;5.82;;;;;;;-146.27;96.47;82581.06;5025083;28;20045;-68
2023/08/26 04:52:05;;;;;;;15.80;6.15;;;;;;;-146.27;96.74;82562.97;5028714;28;20108;-68
2023/08/26 04:54:30;;;;;;;11.80;5.25;;;;;;;-146.27;96.48;82569.00;5025867;28;20045;-66
2023/08/26 04:56:55;;;;;;;13.70;5.28;;;;;;;-146.27;96.79;82548.91;5023164;28;20026;-71
2023/08/26 04:59:21;;;;;;;15.40;5.53;;;;;;;-146.27;96.46;82540.88;5023349;28;20056;-66
2023/08/26 05:01:46;;;;;;;16.83;5.80;;;;;;;-146.27;96.28;82532.84;5024373;28;20025;-66
2023/08/26 05:04:11;;;;;;;11.65;5.28;;;;;;;-146.27;96.16;82504.72;5023706;28;20030;-67
2023/08/26 05:06:37;;;;;;;10.35;4.63;;;;;;;-146.27;96.09;82552.94;5036331;28;20033;-67
2023/08/26 05:09:04;;;;;;;15.57;5.35;;;;;;;-146.27;96.37;82532.84;5026078;28;20038;-67
2023/08/26 05:11:29;;;;;;;19.85;5.55;;;;;;;-146.27;95.96;82550.91;5025556;28;20036;-67
2023/08/26 05:13:54;;;;;;;14.93;5.45;;;;;;;-146.27;96.10;82540.88;5030125;28;20021;-67
2023/08/26 05:16:20;;;;;;;13.70;5.13;;;;;;;-146.27;95.93;82593.09;5030385;28;20064;-66
2023/08/26 05:18:45;;;;;;;21.20;4.63;;;;;;;-146.27;96.01;82599.13;5028418;28;20060;-66
2023/08/26 05:21:11;;;;;;;12.18;4.57;;;;;;;-146.27;96.34;82540.88;5029715;28;20029;-67
2023/08/26 05:23:36;;;;;;;12.57;3.90;;;;;;;-146.27;96.01;82538.88;5030434;28;20048;-66
2023/08/26 05:26:01;;;;;;;13.27;4.97;;;;;;;-146.27;95.84;82540.88;5028110;28;20442;-66
2023/08/26 05:28:27;;;;;;;7.10;3.80;;;;;;;-146.27;95.85;82556.94;5028538;28;20030;-66
2023/08/26 05:30:52;;;;;;;13.30;4.15;;;;;;;-146.27;95.98;82528.81;5029394;28;20021;-65
2023/08/26 05:33:17;;;;;;;9.65;3.22;;;;;;;-146.27;96.13;82496.69;5030394;28;20029;-65
2023/08/26 05:35:43;;;;;;;10.85;3.53;;;;;;;-146.27;95.65;82520.78;5027194;28;20025;-67
2023/08/26 05:38:08;;;;;;;9.20;3.83;;;;;;;-146.27;95.65;82536.84;5027402;28;20034;-66
2023/08/26 05:40:34;;;;;;;12.25;2.90;;;;;;;-146.27;95.71;82488.66;5029060;28;20539;-67
2023/08/26 05:42:59;;;;;;;11.00;3.95;;;;;;;-146.27;95.74;82538.88;5028075;28;20029;-67
2023/08/26 05:45:26;;;;;;;9.98;3.42;;;;;;;-146.27;95.72;82470.56;5025915;28;20026;-67
2023/08/26 05:47:52;;;;;;;11.98;3.28;;;;;;;-146.27;95.52;82500.69;5024496;28;20059;-66
2023/08/26 05:50:17;;;;;;;9.65;3.50;;;;;;;-146.27;95.12;82490.66;5030101;28;20030;-66
2023/08/26 05:52:43;;;;;;;6.60;3.20;;;;;;;-146.27;94.96;82444.44;5020968;28;20100;-67
2023/08/26 05:55:09;;;;;;;9.25;2.70;;;;;;;-146.27;94.53;82464.53;5023429;28;20401;-68
2023/08/26 05:57:35;;;;;;;7.97;3.78;;;;;;;-146.27;94.34;82438.44;5025798;28;20116;-66
2023/08/26 06:00:00;;;;;;;10.05;3.47;;;;;;;-146.27;94.64;82414.31;5026587;28;20481;-67
2023/08/26 06:02:26;;;;;;;8.23;3.15;;;;;;;-146.27;94.38;82380.16;5026556;28;20064;-68
2023/08/26 06:04:51;;;;;;;12.30;3.35;;;;;;;-146.27;94.00;82458.50;5016743;28;20030;-67
2023/08/26 06:07:18;;;;;;;6.07;2.65;;;;;;;-146.27;93.97;82414.31;5020748;28;20057;-66
2023/08/26 06:09:43;;;;;;;9.00;3.35;;;;;;;-146.27;93.87;82414.31;5026013;28;20069;-68
2023/08/26 06:12:09;;;;;;;11.65;3.60;;;;;;;-146.27;93.66;82448.47;5020177;28;20496;-67
2023/08/26 06:14:34;;;;;;;10.80;3.40;;;;;;;-146.27;93.81;82388.22;5018878;28;20025;-67
2023/08/26 06:16:59;;;;;;;6.95;3.03;;;;;;;-146.27;93.67;82378.16;5027550;28;20481;-69
2023/08/26 06:19:25;;;;;;;11.40;2.95;;;;;;;-146.27;93.22;82358.06;5025591;28;20456;-67
2023/08/26 06:21:50;;;;;;;11.32;3.40;;;;;;;-146.27;93.19;82340.00;5027146;28;20101;-66
2023/08/26 06:24:16;;;;;;;6.97;2.90;;;;;;;-146.27;92.90;82327.94;5025637;28;20033;-67
2023/08/26 06:26:43;;;;;;;8.40;2.75;;;;;;;-146.27;92.90;82319.91;5028004;28;20028;-67
2023/08/26 06:29:08;;;;;;;11.68;2.80;;;;;;;-146.27;92.82;82265.66;5028079;28;20717;-67
2023/08/26 06:31:34;;;;;;;7.63;3.03;;;;;;;-146.27;92.71;82239.56;5030094;28;20034;-67
2023/08/26 06:33:59;;;;;;;7.95;3.50;;;;;;;-146.27;91.59;82285.75;5029269;28;20473;-65
2023/08/26 06:36:25;;;;;;;10.07;3.38;;;;;;;-146.27;91.75;82291.78;5027422;28;20037;-68
2023/08/26 06:38:50;;;;;;;9.75;3.28;;;;;;;-146.27;91.77;82253.63;5030248;28;20041;-67
2023/08/26 06:41:16;;;;;;;9.60;3.00;;;;;;;-146.27;91.60;82327.94;5031938;28;20041;-67
2023/08/26 06:43:41;;;;;;;6.03;2.30;;;;;;;-146.27;91.16;82273.72;5025948;28;20026;-67
2023/08/26 06:46:06;;;;;;;9.43;2.95;;;;;;;-146.27;91.12;82265.66;5029907;28;20036;-68
2023/08/26 06:48:32;;;;;;;5.60;2.55;;;;;;;-146.27;91.62;82299.81;5025413;28;20101;-66
2023/08/26 06:50:57;;;;;;;8.18;2.70;;;;;;;-146.27;91.81;82315.88;5029745;28;20017;-68
2023/08/26 06:53:23;;;;;;;7.90;2.50;;;;;;;-146.27;91.26;82340.00;5030954;28;20495;-68
2023/08/26 06:55:50;;;;;;;6.38;2.70;;;;;;;-146.27;91.43;82309.88;5031409;28;20029;-66
2023/08/26 06:58:16;;;;;;;5.45;3.20;;;;;;;-146.27;91.15;82327.94;5020059;28;20120;-65
2023/08/26 07:00:42;;;;;;;10.57;3.60;;;;;;;-146.27;91.99;82398.25;5030450;28;20449;-66
2023/08/26 07:03:08;;;;;;;10.25;4.03;;;;;;;-146.27;91.10;82313.88;5032132;28;20155;-67
2023/08/26 07:05:33;;;;;;;8.50;3.90;;;;;;;-146.27;90.95;82285.75;5030320;28;20106;-67
2023/08/26 07:07:59;;;;;;;7.53;4.43;;;;;;;-146.27;90.31;82291.78;5030918;28;20054;-68
2023/08/26 07:10:24;;;;;;;7.22;4.40;;;;;;;-146.27;89.85;82239.56;5029288;28;20025;-69
2023/08/26 07:12:49;;;;;;;8.02;3.95;;;;;;;-146.27;89.67;82301.81;5031436;28;20033;-66
2023/08/26 07:15:15;;;;;;;6.32;4.28;;;;;;;-146.27;89.66;82251.59;5029733;28;20091;-67
2023/08/26 07:17:40;;;;;;;10.45;5.18;;;;;;;-146.27;88.89;82279.72;5030875;28;20474;-67
2023/08/26 07:20:06;;;;;;;9.52;4.72;;;;;;;-146.27;88.27;82245.59;5028840;28;20481;-66
2023/08/26 07:22:31;;;;;;;8.05;4.63;;;;;;;-146.27;88.45;82229.50;5032758;28;20075;-67
2023/08/26 07:24:57;;;;;;;3.90;3.10;;;;;;;-146.27;88.35;82255.63;5031267;28;20056;-68
2023/08/26 07:27:23;;;;;;;5.43;3.60;;;;;;;-146.27;87.62;82213.44;5028896;28;20029;-69
2023/08/26 07:29:48;;;;;;;5.40;3.05;;;;;;;-146.27;87.55;82219.47;5031485;28;20041;-70
2023/08/26 07:32:14;;;;;;;6.35;2.90;;;;;;;-146.27;87.46;82215.44;5030620;28;20408;-70
2023/08/26 07:34:39;;;;;;;3.65;2.70;;;;;;;-146.27;87.00;82231.53;5028962;28;20029;-69
2023/08/26 07:37:04;;;;;;;7.13;2.90;;;;;;;-146.27;87.17;82201.38;5030081;28;20171;-69
2023/08/26 07:39:30;;;;;;;4.80;2.45;;;;;;;-146.27;87.06;82151.16;5031098;28;20033;-69
2023/08/26 07:41:55;;;;;;;5.78;2.40;;;;;;;-146.27;87.00;82074.84;5027756;28;20048;-71
2023/08/26 07:44:21;;;;;;;2.95;2.05;;;;;;;-146.27;87.02;82115.00;5029452;28;20100;-70
2023/08/26 07:46:46;;;;;;;5.25;2.15;;;;;;;-146.27;85.92;82111.00;5030285;28;20504;-69
2023/08/26 07:49:11;;;;;;;5.68;1.70;;;;;;;-146.27;85.45;82098.94;5030277;28;20065;-67
2023/08/26 07:51:37;;;;;;;5.47;2.10;;;;;;;-146.27;84.77;82125.06;5031514;28;20034;-73
2023/08/26 07:54:03;;;;;;;12.27;3.15;;;;;;;-146.27;85.01;82050.75;5029508;28;20487;-70
2023/08/26 07:56:28;;;;;;;6.43;2.55;;;;;;;-146.27;84.61;82042.69;5031334;28;20064;-66
2023/08/26 07:58:54;;;;;;;9.40;2.42;;;;;;;-146.27;83.96;82076.84;5032006;28;20119;-68
2023/08/26 08:01:19;;;;;;;6.68;1.75;;;;;;;-146.27;83.25;82171.25;5029140;28;20032;-68
2023/08/26 08:03:45;;;;;;;5.47;1.80;;;;;;;-146.27;83.80;82014.59;5030615;28;20028;-70
2023/08/26 08:06:10;;;;;;;4.18;1.38;;;;;;;-146.27;82.83;82086.91;5030824;28;20014;-68
2023/08/26 08:08:35;;;;;;;8.18;1.75;;;;;;;-146.27;82.83;82072.84;5028320;28;20037;-68
2023/08/26 08:11:01;;;;;;;3.15;1.27;;;;;;;-146.27;82.50;82044.72;5028462;28;20032;-70
2023/08/26 08:13:26;;;;;;;6.10;1.30;;;;;;;-146.27;83.16;82000.53;5030050;28;20116;-71
2023/08/26 08:15:51;;;;;;;2.22;1.10;;;;;;;-146.27;81.41;82000.53;5023706;28;20076;-67
2023/08/26 08:18:17;;;;;;;3.47;1.00;;;;;;;-146.27;80.78;81940.25;5027886;28;20042;-69
2023/08/26 08:20:42;;;;;;;4.43;1.10;;;;;;;-146.27;80.27;81946.28;5028914;28;20056;-67
2023/08/26 08:23:07;;;;;;;2.08;1.10;;;;;;;-146.27;79.71;81918.16;5028845;28;20032;-68
2023/08/26 08:25:34;;;;;;;1.17;1.08;;;;;;;-146.27;78.27;81950.31;5030149;28;20035;-66
2023/08/26 08:28:01;;;;;;;2.33;1.30;;;;;;;-146.27;78.93;81950.31;5029047;28;20029;-68
2023/08/26 08:30:26;;;;;;;5.00;1.25;;;;;;;-146.27;78.42;81884.03;5026547;28;20040;-68
2023/08/26 08:32:52;;;;;;;1.55;0.90;;;;;;;-146.27;76.37;81922.19;5030005;28;20465;-67
2023/08/26 08:35:17;;;;;;;1.70;1.20;;;;;;;-146.27;76.06;81873.97;5030913;28;20481;-67
2023/08/26 08:37:42;;;;;;;1.88;0.95;;;;;;;-146.27;75.87;81938.25;5028828;28;20040;-66
2023/08/26 08:40:08;;;;;;;3.78;1.10;;;;;;;-146.27;76.10;81861.94;5031101;28;20018;-68
2023/08/26 08:42:34;;;;;;;5.32;1.17;;;;;;;-146.27;76.09;81819.75;5031584;28;20115;-66
2023/08/26 08:45:01;;;;;;;4.25;0.98;;;;;;;-146.27;75.63;81737.41;5030546;28;20029;-67
2023/08/26 08:47:28;;;;;;;3.30;1.77;;;;;;;-146.27;74.93;81777.56;5029139;28;20029;-67
2023/08/26 08:49:55;;;;;;;3.60;2.30;;;;;;;-146.27;75.45;81721.34;5030189;28;20107;-67
2023/08/26 08:52:22;;;;;;;3.45;2.33;;;;;;;-146.27;75.36;81685.19;5029108;28;20025;-67
2023/08/26 08:54:48;;;;;;;2.28;1.95;;;;;;;-146.27;74.51;81653.06;5029406;28;20094;-67
2023/08/26 08:57:15;;;;;;;3.80;2.10;;;;;;;-146.27;74.32;81596.81;5026977;28;20029;-66
2023/08/26 08:59:41;;;;;;;3.55;2.25;;;;;;;-146.27;74.02;81634.97;5026952;28;20025;-66
2023/08/26 09:02:06;;;;;;;4.43;2.20;;;;;;;-146.27;73.62;81705.28;5028004;28;20091;-66
2023/08/26 09:04:33;;;;;;;4.50;1.98;;;;;;;-146.27;75.13;81705.28;5027413;28;20439;-67
2023/08/26 09:07:00;;;;;;;4.68;2.35;;;;;;;-146.27;74.74;81636.97;5029000;28;20598;-68
2023/08/26 09:09:26;;;;;;;7.00;1.90;;;;;;;-146.27;75.04;81691.22;5029087;28;20049;-66
2023/08/26 09:11:51;;;;;;;4.05;1.30;;;;;;;-146.27;74.88;81739.41;5029989;28;20033;-66
2023/08/26 09:14:24;;;;;;;3.30;1.20;;;;;;;-146.27;74.36;81777.56;5080846;27;20753;-67
2023/08/26 09:16:50;;;;;;;3.38;1.30;;;;;;;-146.27;75.10;81755.47;5065052;28;20040;-68
2023/08/26 09:19:16;;;;;;;1.80;1.20;;;;;;;-146.27;76.11;81827.78;5073963;28;20063;-67
2023/08/26 09:21:42;;;;;;;4.97;1.38;;;;;;;-146.27;76.86;81761.50;5067135;28;20396;-68
2023/08/26 09:24:14;;;;;;;2.33;1.10;;;;;;;-146.27;74.91;81769.53;5065999;28;20471;-67
2023/08/26 09:26:41;;;;;;;4.70;1.38;;;;;;;-146.27;75.43;81733.38;5052020;28;20405;-67
2023/08/26 09:29:20;;;;;;;3.78;1.30;;;;;;;-146.27;75.37;81618.91;5051477;28;20052;-67
2023/08/26 09:31:49;;;;;;;1.95;1.10;;;;;;;-146.27;74.61;81528.53;5067258;28;20103;-68
2023/08/26 09:34:32;;;;;;;2.63;0.95;;;;;;;-146.27;72.88;81496.41;5067064;28;20012;-67
2023/08/26 09:36:58;;;;;;;5.03;0.83;;;;;;;-146.27;73.00;81508.44;5058355;28;20029;-68
2023/08/26 09:39:25;;;;;;;1.75;0.70;;;;;;;-146.27;73.45;81454.22;5071816;28;20372;-69
2023/08/26 09:41:53;;;;;;;3.45;0.82;;;;;;;-146.27;71.82;81395.97;5066934;28;20029;-68
2023/08/26 09:44:21;;;;;;;1.77;0.70;;;;;;;-146.27;71.85;81301.59;5066926;28;20029;-66
2023/08/26 09:46:46;;;;;;;2.60;1.23;;;;;;;-146.27;69.46;81371.88;5064463;28;20389;-66
2023/08/26 09:49:17;;;;;;;1.15;0.90;;;;;;;-146.27;69.30;81271.47;5067108;28;20025;-70
2023/08/26 09:51:47;;;;;;;4.60;1.13;;;;;;;-146.27;70.19;81291.53;5069349;28;20031;-69
2023/08/26 09:54:17;;;;;;;1.58;1.00;;;;;;;-146.27;70.81;81199.16;5071787;28;20020;-69
2023/08/26 09:56:44;;;;;;;2.33;0.60;;;;;;;-146.27;67.39;81175.06;5067093;28;20033;-69
2023/08/26 09:59:10;;;;;;;2.90;1.00;;;;;;;-146.27;67.22;81279.50;5071365;28;20033;-69
2023/08/26 10:01:37;;;;;;;1.55;0.70;;;;;;;-146.27;66.71;81271.47;5064925;28;20035;-66
2023/08/26 10:04:09;;;;;;;7.85;1.05;;;;;;;-146.27;67.64;81231.31;5077358;28;20028;-69
2023/08/26 10:06:38;;;;;;;5.70;1.13;;;;;;;-146.27;67.00;81237.31;5066490;28;20538;-66
2023/08/26 10:09:19;;;;;;;2.97;0.98;;;;;;;-146.27;67.13;81295.56;5058986;28;20062;-66
2023/08/26 10:11:50;;;;;;;3.75;0.93;;;;;;;-146.27;67.08;81289.53;5054624;28;20515;-67
2023/08/26 10:14:18;;;;;;;1.55;1.05;;;;;;;-146.27;66.62;81126.88;5060929;28;20037;-67
2023/08/26 10:16:45;;;;;;;8.45;1.42;;;;;;;-146.27;69.03;81249.38;5062172;28;20029;-69
2023/08/26 10:19:12;;;;;;;4.82;1.30;;;;;;;-146.27;71.97;81315.66;5062051;28;20029;-68
2023/08/26 10:21:38;;;;;;;2.70;1.10;;;;;;;-146.27;73.49;81327.69;5063606;28;20044;-67
2023/08/26 10:24:05;;;;;;;7.05;1.23;;;;;;;-146.27;75.26;81395.97;5062192;28;20369;-66
2023/08/26 10:26:30;;;;;;;5.15;1.27;;;;;;;-146.27;77.13;81347.78;5043009;28;20108;-67
2023/08/26 10:28:56;;;;;;;4.07;1.15;;;;;;;-146.27;76.53;81389.94;5035783;28;20116;-69
2023/08/26 10:31:32;;;;;;;2.03;1.02;;;;;;;-146.27;77.06;81387.94;5036167;28;20073;-68
2023/08/26 10:34:07;;;;;;;1.05;0.90;;;;;;;-146.27;76.33;81464.25;5034468;28;20032;-69
2023/08/26 10:36:39;;;;;;;2.55;0.98;;;;;;;-146.27;75.40;81524.50;5045328;28;20036;-70
2023/08/26 10:39:15;;;;;;;5.80;1.08;;;;;;;-146.27;76.25;81500.41;5041226;28;20071;-69
2023/08/26 10:42:14;;;;;;;3.85;1.20;;;;;;;-146.27;76.50;81500.41;5045630;28;20032;-67
2023/08/26 10:44:41;;;;;;;6.45;1.70;;;;;;;-146.27;76.35;81450.19;5059070;28;20100;-68
2023/08/26 10:47:08;;;;;;;6.28;1.70;;;;;;;-146.27;77.13;81303.59;5045139;28;20107;-68
2023/08/26 10:49:36;;;;;;;2.25;1.50;;;;;;;-146.27;75.85;81197.16;5042769;28;20056;-68
2023/08/26 10:52:31;;;;;;;3.35;1.10;;;;;;;-146.27;73.35;81201.19;5042151;28;20033;-68
2023/08/26 10:55:12;;;;;;;3.63;1.17;;;;;;;-146.27;73.47;81279.50;5041626;28;20492;-68
2023/08/26 10:57:41;;;;;;;3.10;1.10;;;;;;;-146.27;73.37;81301.59;5038376;28;20022;-68
2023/08/26 11:00:11;;;;;;;2.72;1.00;;;;;;;-146.27;73.45;81363.84;5037763;28;20052;-67
2023/08/26 11:02:36;;;;;;;3.72;1.00;;;;;;;-146.27;73.43;81369.88;5036387;28;20033;-68
2023/08/26 11:05:02;;;;;;;1.42;0.63;;;;;;;-146.27;72.98;81400.00;5036017;28;20028;-68
2023/08/26 11:07:28;;;;;;;3.92;0.75;;;;;;;-146.27;71.14;81375.91;5042770;28;20035;-68
2023/08/26 11:09:54;;;;;;;3.45;0.85;;;;;;;-146.27;69.46;81307.63;5032222;28;20034;-69
2023/08/26 11:12:27;;;;;;;4.70;0.88;;;;;;;-146.27;67.97;81205.19;5032715;28;20125;-68